Time;durP1;ratioP1;P1;durP2;ratioP2;P2;SDS_P1;SDS_P2;PMS_P1;PMS_P2;Temp;Humidity;BMP_temperature;BMP_pressure;BME280_temperature;BME280_humidity;BME280_pressure;Samples;Min_cycle;Max_cycle;Signal;HPM_P1;HPM_P2
2021/10/18 00:01:42;;;;;;;1.57;1.10;;;9.80;98.20;;;;;;5012375;28;20598;-77
2021/10/18 00:04:09;;;;;;;1.53;1.20;;;9.80;98.20;;;;;;5022043;28;20998;-77
2021/10/18 00:06:37;;;;;;;1.60;1.20;;;9.70;98.20;;;;;;5008005;28;20487;-77
2021/10/18 00:09:04;;;;;;;1.70;1.50;;;9.70;98.20;;;;;;5018680;28;20492;-77
2021/10/18 00:11:31;;;;;;;1.60;1.20;;;9.70;98.20;;;;;;5006619;28;20929;-76
2021/10/18 00:13:58;;;;;;;1.60;1.20;;;9.60;98.20;;;;;;5023392;28;20475;-77
2021/10/18 00:16:24;;;;;;;1.53;1.20;;;9.50;98.20;;;;;;5007197;28;21031;-76
2021/10/18 00:18:51;;;;;;;1.60;1.20;;;9.50;98.20;;;;;;5016935;28;20502;-77
2021/10/18 00:21:18;;;;;;;1.60;1.20;;;9.50;98.20;;;;;;5004963;28;20875;-77
2021/10/18 00:23:46;;;;;;;1.60;1.20;;;9.40;98.20;;;;;;5024478;28;20468;-77
2021/10/18 00:26:14;;;;;;;1.60;1.23;;;9.40;98.20;;;;;;5006483;28;21057;-76
2021/10/18 00:28:40;;;;;;;1.60;1.30;;;9.30;98.20;;;;;;5021780;28;20490;-77
2021/10/18 00:31:07;;;;;;;1.57;1.20;;;9.20;98.20;;;;;;5006681;28;20598;-76
2021/10/18 00:33:34;;;;;;;1.57;1.20;;;9.20;98.20;;;;;;5023257;28;20464;-77
2021/10/18 00:36:01;;;;;;;1.50;1.20;;;9.20;98.20;;;;;;5001129;28;20471;-76
2021/10/18 00:38:27;;;;;;;1.60;1.20;;;9.20;98.20;;;;;;5024366;28;20495;-76
2021/10/18 00:40:56;;;;;;;1.53;1.20;;;9.10;98.20;;;;;;5004036;28;20471;-77
2021/10/18 00:43:23;;;;;;;1.60;1.20;;;9.10;98.20;;;;;;5024337;28;20452;-76
2021/10/18 00:45:50;;;;;;;1.60;1.20;;;9.10;98.20;;;;;;4998002;28;20967;-77
2021/10/18 00:48:17;;;;;;;1.60;1.23;;;9.00;98.20;;;;;;5027797;28;20499;-76
2021/10/18 00:50:44;;;;;;;1.60;1.30;;;9.00;98.20;;;;;;5011500;28;20959;-77
2021/10/18 00:53:11;;;;;;;2.03;1.83;;;9.00;98.20;;;;;;5000477;28;20503;-76
2021/10/18 00:55:38;;;;;;;1.60;1.20;;;8.90;98.20;;;;;;5008553;28;20480;-77
2021/10/18 00:58:07;;;;;;;1.60;1.20;;;8.90;98.20;;;;;;5013902;28;20487;-77
2021/10/18 01:00:33;;;;;;;1.60;1.30;;;8.80;98.20;;;;;;4998142;28;20473;-77
2021/10/18 01:03:01;;;;;;;1.60;1.23;;;8.80;98.20;;;;;;5013882;28;20506;-76
2021/10/18 01:05:28;;;;;;;1.60;1.23;;;8.80;98.20;;;;;;5000394;28;20472;-77
2021/10/18 01:07:56;;;;;;;1.60;1.30;;;8.70;98.20;;;;;;5003864;28;20499;-77
2021/10/18 01:10:22;;;;;;;1.60;1.20;;;8.70;98.20;;;;;;5002272;28;20470;-77
2021/10/18 01:12:49;;;;;;;1.60;1.30;;;8.70;98.20;;;;;;5007530;28;20482;-77
2021/10/18 01:15:17;;;;;;;1.60;1.30;;;8.70;98.20;;;;;;5005618;28;20660;-77
2021/10/18 01:17:44;;;;;;;1.60;1.20;;;8.60;98.20;;;;;;5012568;28;20490;-77
2021/10/18 01:20:13;;;;;;;1.60;1.30;;;8.60;98.20;;;;;;5010715;28;20467;-77
2021/10/18 01:22:41;;;;;;;1.60;1.30;;;8.60;98.20;;;;;;5018257;28;20604;-79
2021/10/18 01:25:08;;;;;;;1.60;1.30;;;8.60;98.20;;;;;;5018146;28;20460;-76
2021/10/18 01:27:35;;;;;;;1.60;1.20;;;8.50;98.20;;;;;;5013391;28;20493;-77
2021/10/18 01:30:03;;;;;;;1.60;1.30;;;8.50;98.20;;;;;;5013848;28;20452;-77
2021/10/18 01:32:30;;;;;;;1.60;1.30;;;8.50;98.20;;;;;;5014266;28;20478;-80
2021/10/18 01:34:56;;;;;;;1.60;1.30;;;8.50;98.20;;;;;;5019409;28;20472;-79
2021/10/18 01:37:23;;;;;;;1.60;1.20;;;8.50;98.20;;;;;;5011455;28;20494;-80
2021/10/18 01:39:51;;;;;;;1.60;1.30;;;8.40;98.20;;;;;;5019637;28;20488;-79
2021/10/18 01:42:18;;;;;;;1.60;1.20;;;8.40;98.20;;;;;;5007781;28;20503;-78
2021/10/18 01:44:45;;;;;;;1.60;1.30;;;8.40;98.20;;;;;;5011798;28;20464;-79
2021/10/18 01:47:11;;;;;;;1.60;1.30;;;8.40;98.20;;;;;;5012169;28;20488;-78
2021/10/18 01:49:38;;;;;;;1.60;1.30;;;8.30;98.20;;;;;;5016879;28;20995;-78
2021/10/18 01:52:05;;;;;;;1.60;1.30;;;8.30;98.20;;;;;;5012458;28;20491;-79
2021/10/18 01:54:32;;;;;;;1.60;1.30;;;8.30;98.20;;;;;;5020594;28;20459;-78
2021/10/18 01:57:00;;;;;;;1.60;1.30;;;8.30;98.20;;;;;;5011332;28;20517;-79
2021/10/18 01:59:28;;;;;;;1.60;1.20;;;8.20;98.20;;;;;;5014744;28;20495;-77
2021/10/18 02:01:55;;;;;;;1.60;1.30;;;8.20;98.20;;;;;;5008680;28;20530;-78
2021/10/18 02:04:22;;;;;;;1.70;1.60;;;8.20;98.20;;;;;;5018468;28;20465;-79
2021/10/18 02:06:49;;;;;;;1.60;1.23;;;8.20;98.20;;;;;;5012156;28;20483;-78
2021/10/18 02:09:15;;;;;;;1.60;1.30;;;8.10;98.20;;;;;;5021066;28;20459;-78
2021/10/18 02:11:42;;;;;;;1.60;1.30;;;8.10;98.20;;;;;;5007982;28;20481;-78
2021/10/18 02:14:10;;;;;;;1.60;1.30;;;8.10;98.20;;;;;;5017029;28;20979;-78
2021/10/18 02:16:37;;;;;;;1.60;1.30;;;8.10;98.20;;;;;;5007556;28;20852;-78
2021/10/18 02:19:04;;;;;;;1.60;1.30;;;8.10;98.20;;;;;;5020509;28;20492;-78
2021/10/18 02:21:30;;;;;;;1.60;1.20;;;8.00;98.20;;;;;;5009535;28;20874;-78
2021/10/18 02:23:57;;;;;;;1.60;1.30;;;8.00;98.20;;;;;;5019558;28;20468;-78
2021/10/18 02:26:24;;;;;;;1.60;1.30;;;8.00;98.20;;;;;;4999367;28;20472;-78
2021/10/18 02:28:50;;;;;;;1.60;1.20;;;8.00;98.20;;;;;;5007808;28;20860;-78
2021/10/18 02:31:19;;;;;;;1.60;1.30;;;8.00;98.20;;;;;;5002956;28;20482;-79
2021/10/18 02:33:45;;;;;;;1.60;1.30;;;7.90;98.20;;;;;;5022070;28;21174;-78
2021/10/18 02:36:12;;;;;;;1.60;1.30;;;7.90;98.20;;;;;;5003913;28;20494;-78
2021/10/18 02:38:39;;;;;;;1.60;1.30;;;7.90;98.20;;;;;;5019435;28;20500;-78
2021/10/18 02:41:07;;;;;;;1.60;1.30;;;7.90;98.20;;;;;;5000474;28;20485;-78
2021/10/18 02:43:33;;;;;;;1.60;1.30;;;7.80;98.20;;;;;;5011837;28;20478;-79
2021/10/18 02:46:00;;;;;;;1.60;1.30;;;7.80;98.20;;;;;;5004427;28;20495;-79
2021/10/18 02:48:28;;;;;;;1.60;1.40;;;7.80;98.20;;;;;;5028436;28;20824;-79
2021/10/18 02:50:55;;;;;;;1.60;1.30;;;7.80;98.20;;;;;;5005975;28;20975;-79
2021/10/18 02:53:22;;;;;;;1.60;1.27;;;7.80;98.20;;;;;;5024046;28;20475;-78
2021/10/18 02:55:49;;;;;;;1.60;1.30;;;7.80;98.20;;;;;;5001898;28;20491;-78
2021/10/18 02:58:16;;;;;;;1.60;1.30;;;7.70;98.20;;;;;;5017905;28;20590;-78
2021/10/18 03:00:42;;;;;;;1.60;1.40;;;7.70;98.20;;;;;;5011821;28;20464;-79
2021/10/18 03:03:10;;;;;;;1.60;1.27;;;7.70;98.20;;;;;;5015589;28;20481;-79
2021/10/18 03:05:38;;;;;;;1.60;1.30;;;7.70;98.20;;;;;;5008654;28;20472;-78
2021/10/18 03:08:05;;;;;;;1.60;1.30;;;7.70;98.20;;;;;;5008232;28;20491;-79
2021/10/18 03:10:32;;;;;;;1.60;1.20;;;7.70;98.20;;;;;;5010901;28;20834;-78
2021/10/18 03:12:59;;;;;;;1.60;1.30;;;7.70;98.20;;;;;;5014202;28;20851;-79
2021/10/18 03:15:25;;;;;;;1.60;1.30;;;7.70;98.20;;;;;;5011820;28;20812;-78
2021/10/18 03:17:52;;;;;;;1.60;1.43;;;7.60;98.20;;;;;;5019797;28;20990;-78
2021/10/18 03:20:19;;;;;;;1.60;1.30;;;7.60;98.20;;;;;;5012929;28;20494;-78
2021/10/18 03:22:47;;;;;;;1.60;1.30;;;7.60;98.20;;;;;;5013549;28;20861;-78
2021/10/18 03:25:14;;;;;;;1.60;1.30;;;7.60;98.20;;;;;;5010588;28;20464;-78
2021/10/18 03:27:40;;;;;;;1.60;1.30;;;7.60;98.20;;;;;;5016228;28;20557;-78
2021/10/18 03:30:09;;;;;;;1.60;1.30;;;7.60;98.20;;;;;;5012383;28;20472;-79
2021/10/18 03:32:35;;;;;;;1.60;1.20;;;7.60;98.20;;;;;;5011325;28;20484;-79
2021/10/18 03:35:02;;;;;;;1.60;1.30;;;7.60;98.20;;;;;;5007068;28;20469;-77
2021/10/18 03:37:29;;;;;;;1.60;1.30;;;7.50;98.20;;;;;;5013848;28;20489;-78
2021/10/18 03:39:58;;;;;;;1.60;1.30;;;7.60;98.20;;;;;;5017741;28;20495;-78
2021/10/18 03:42:25;;;;;;;1.60;1.30;;;7.50;98.20;;;;;;5013070;28;20562;-78
2021/10/18 03:44:52;;;;;;;1.60;1.20;;;7.50;98.20;;;;;;5009029;28;20481;-79
2021/10/18 03:47:19;;;;;;;1.60;1.40;;;7.50;98.20;;;;;;5010945;28;20502;-78
2021/10/18 03:49:46;;;;;;;1.60;1.30;;;7.50;98.20;;;;;;5010895;28;20464;-79
2021/10/18 03:52:13;;;;;;;1.60;1.40;;;7.50;98.20;;;;;;5011495;28;20487;-77
2021/10/18 03:54:39;;;;;;;1.60;1.30;;;7.50;98.20;;;;;;5017036;28;20455;-79
2021/10/18 03:57:07;;;;;;;1.60;1.30;;;7.50;98.20;;;;;;5010025;28;20498;-79
2021/10/18 03:59:37;;;;;;;1.60;1.30;;;7.50;98.20;;;;;;5015269;28;20487;-79
2021/10/18 04:02:06;;;;;;;1.60;1.30;;;7.50;98.20;;;;;;5016746;28;20474;-79
2021/10/18 04:04:32;;;;;;;1.60;1.30;;;7.40;98.20;;;;;;5021336;28;20467;-78
2021/10/18 04:06:59;;;;;;;1.60;1.40;;;7.40;98.20;;;;;;5006164;28;20483;-78
2021/10/18 04:09:26;;;;;;;1.60;1.30;;;7.50;98.20;;;;;;5017191;28;20456;-78
2021/10/18 04:11:52;;;;;;;1.60;1.30;;;7.40;98.20;;;;;;5008930;28;20475;-77
2021/10/18 04:14:21;;;;;;;1.60;1.40;;;7.40;98.20;;;;;;5015172;28;20468;-79
2021/10/18 04:16:47;;;;;;;1.60;1.27;;;7.40;98.20;;;;;;5008538;28;20479;-78
2021/10/18 04:19:14;;;;;;;1.60;1.30;;;7.40;98.20;;;;;;5022023;28;20498;-78
2021/10/18 04:21:41;;;;;;;1.60;1.40;;;7.40;98.20;;;;;;5008438;28;20483;-78
2021/10/18 04:24:08;;;;;;;1.60;1.30;;;7.40;98.20;;;;;;5022701;28;20468;-79
2021/10/18 04:26:35;;;;;;;1.60;1.27;;;7.40;98.20;;;;;;5010183;28;20478;-78
2021/10/18 04:29:05;;;;;;;1.60;1.30;;;7.40;98.20;;;;;;5024115;28;20483;-79
2021/10/18 04:31:33;;;;;;;1.60;1.30;;;7.40;98.20;;;;;;5009022;28;20479;-77
2021/10/18 04:34:00;;;;;;;1.60;1.40;;;7.40;98.20;;;;;;5024348;28;20826;-77
2021/10/18 04:36:27;;;;;;;1.60;1.30;;;7.40;98.20;;;;;;5006814;28;20489;-78
2021/10/18 04:38:54;;;;;;;1.60;1.30;;;7.40;98.20;;;;;;5021353;28;20492;-77
2021/10/18 04:41:20;;;;;;;1.60;1.40;;;7.40;98.20;;;;;;5009166;28;21027;-78
2021/10/18 04:43:47;;;;;;;1.60;1.30;;;7.40;98.20;;;;;;5028449;28;20460;-77
2021/10/18 04:46:14;;;;;;;1.60;1.30;;;7.40;98.20;;;;;;5006373;28;20491;-77
2021/10/18 04:48:42;;;;;;;1.60;1.20;;;7.40;98.20;;;;;;5011816;28;20484;-77
2021/10/18 04:51:09;;;;;;;1.60;1.30;;;7.40;98.20;;;;;;5003440;28;20483;-78
2021/10/18 04:53:36;;;;;;;1.60;1.30;;;7.40;98.20;;;;;;5017708;28;20842;-78
2021/10/18 04:56:03;;;;;;;1.60;1.40;;;7.40;98.20;;;;;;5005743;28;20472;-78
2021/10/18 04:58:30;;;;;;;1.93;1.73;;;7.50;98.20;;;;;;5023887;28;20647;-78
2021/10/18 05:01:03;;;;;;;1.60;1.20;;;7.50;98.20;;;;;;5004932;28;20490;-77
2021/10/18 05:03:29;;;;;;;1.60;1.20;;;7.50;98.20;;;;;;5027603;28;20461;-78
2021/10/18 05:05:58;;;;;;;1.60;1.30;;;7.50;98.20;;;;;;4993892;28;20467;-77
2021/10/18 05:08:24;;;;;;;1.60;1.40;;;7.50;98.20;;;;;;5014789;28;20488;-77
2021/10/18 05:10:51;;;;;;;1.60;1.30;;;7.50;98.20;;;;;;4999397;28;20486;-77
2021/10/18 05:13:18;;;;;;;1.60;1.30;;;7.50;98.20;;;;;;5017113;28;20464;-77
2021/10/18 05:15:48;;;;;;;1.60;1.30;;;7.50;98.20;;;;;;5012599;28;20456;-78
2021/10/18 05:18:15;;;;;;;1.60;1.20;;;7.50;98.20;;;;;;4994143;28;20476;-77
2021/10/18 05:20:43;;;;;;;1.60;1.30;;;7.50;98.20;;;;;;5000763;28;20489;-77
2021/10/18 05:23:24;;;;;;;1.60;1.30;;;7.50;98.20;;;;;;5009085;28;20552;-77
2021/10/18 05:25:51;;;;;;;1.60;1.30;;;7.50;98.20;;;;;;5004135;28;20510;-77
2021/10/18 05:28:17;;;;;;;1.60;1.20;;;7.50;98.20;;;;;;5031059;28;20518;-77
2021/10/18 05:30:44;;;;;;;1.60;1.40;;;7.50;98.20;;;;;;5013016;28;20910;-78
2021/10/18 05:33:11;;;;;;;1.60;1.30;;;7.50;98.20;;;;;;5014450;28;20488;-77
2021/10/18 05:35:52;;;;;;;1.60;1.30;;;7.50;98.20;;;;;;5020361;28;20798;-78
2021/10/18 05:38:21;;;;;;;1.60;1.30;;;7.50;98.20;;;;;;5001904;28;20493;-77
2021/10/18 05:40:48;;;;;;;1.60;1.30;;;7.50;98.20;;;;;;5010691;28;20492;-77
2021/10/18 05:43:33;;;;;;;1.60;1.30;;;7.50;98.20;;;;;;5023391;28;20739;-78
2021/10/18 05:46:00;;;;;;;1.60;1.30;;;7.50;98.20;;;;;;4998729;28;20974;-78
2021/10/18 05:48:36;;;;;;;1.60;1.20;;;7.50;98.20;;;;;;5028508;28;21054;-78
2021/10/18 05:51:03;;;;;;;1.60;1.30;;;7.50;98.20;;;;;;5005859;28;20464;-77
2021/10/18 05:53:37;;;;;;;1.60;1.30;;;7.50;98.20;;;;;;5034184;28;20551;-78
2021/10/18 05:56:12;;;;;;;1.60;1.40;;;7.50;98.20;;;;;;5004179;28;20490;-77
2021/10/18 05:58:39;;;;;;;1.60;1.30;;;7.50;98.20;;;;;;5020825;28;20914;-78
2021/10/18 06:01:07;;;;;;;1.60;1.20;;;7.50;98.20;;;;;;5004430;28;20491;-77
2021/10/18 06:03:34;;;;;;;1.60;1.30;;;7.50;98.20;;;;;;5024562;28;20460;-77
2021/10/18 06:06:08;;;;;;;1.60;1.30;;;7.40;98.20;;;;;;5008639;28;20548;-77
2021/10/18 06:08:36;;;;;;;1.60;1.30;;;7.50;98.20;;;;;;5028677;28;20496;-77
2021/10/18 06:11:09;;;;;;;1.60;1.30;;;7.40;98.20;;;;;;5007376;28;20506;-77
2021/10/18 06:13:36;;;;;;;1.60;1.30;;;7.50;98.20;;;;;;5027239;28;20922;-77
2021/10/18 06:16:16;;;;;;;1.60;1.30;;;7.50;98.20;;;;;;5001196;28;20499;-78
2021/10/18 06:18:45;;;;;;;1.60;1.30;;;7.50;98.20;;;;;;5025013;28;20505;-78
2021/10/18 06:21:15;;;;;;;1.60;1.30;;;7.50;98.20;;;;;;5002682;28;21033;-77
2021/10/18 06:24:00;;;;;;;1.60;1.30;;;7.50;98.20;;;;;;5021685;28;20468;-77
2021/10/18 06:26:27;;;;;;;1.60;1.30;;;7.50;98.20;;;;;;5010514;28;20535;-77
2021/10/18 06:28:54;;;;;;;1.60;1.30;;;7.50;98.20;;;;;;5022203;28;20487;-76
2021/10/18 06:31:21;;;;;;;1.60;1.40;;;7.50;98.20;;;;;;5008107;28;20486;-77
2021/10/18 06:33:49;;;;;;;1.60;1.20;;;7.60;98.20;;;;;;5021707;28;20491;-76
2021/10/18 06:36:19;;;;;;;1.57;1.27;;;7.60;98.20;;;;;;5002790;28;20779;-76
2021/10/18 06:38:47;;;;;;;1.60;1.30;;;7.60;98.20;;;;;;5018308;28;20659;-77
2021/10/18 06:41:17;;;;;;;1.60;1.30;;;7.70;98.20;;;;;;5006121;28;20985;-77
2021/10/18 06:43:43;;;;;;;1.60;1.30;;;7.70;98.20;;;;;;5019309;28;20959;-76
2021/10/18 06:46:10;;;;;;;1.60;1.30;;;7.70;98.20;;;;;;5009124;28;20487;-76
2021/10/18 06:48:37;;;;;;;1.60;1.20;;;7.80;98.20;;;;;;5020161;28;20519;-77
2021/10/18 06:51:06;;;;;;;1.60;1.30;;;7.90;98.20;;;;;;4999871;28;20552;-76
2021/10/18 06:53:35;;;;;;;1.60;1.30;;;8.00;98.20;;;;;;5020559;28;20463;-77
2021/10/18 06:56:05;;;;;;;1.60;1.30;;;8.00;98.20;;;;;;4999074;28;20460;-76
2021/10/18 06:58:33;;;;;;;1.60;1.30;;;8.10;98.20;;;;;;5018116;28;20833;-78
2021/10/18 07:01:00;;;;;;;1.60;1.20;;;8.20;98.20;;;;;;4997345;28;20999;-77
2021/10/18 07:03:29;;;;;;;1.60;1.30;;;8.30;98.20;;;;;;5020374;28;20472;-76
2021/10/18 07:06:01;;;;;;;1.60;1.30;;;8.40;98.20;;;;;;5000456;28;20464;-76
2021/10/18 07:08:27;;;;;;;1.60;1.20;;;8.50;98.20;;;;;;5021562;28;20562;-76
2021/10/18 07:10:54;;;;;;;1.60;1.20;;;8.50;98.20;;;;;;5001036;28;21047;-75
2021/10/18 07:13:22;;;;;;;1.60;1.30;;;8.60;98.20;;;;;;5019985;28;20461;-76
2021/10/18 07:15:49;;;;;;;1.60;1.20;;;8.70;98.20;;;;;;4999020;28;20475;-79
2021/10/18 07:18:16;;;;;;;1.60;1.20;;;8.80;98.20;;;;;;5020826;28;20487;-79
2021/10/18 07:20:43;;;;;;;1.60;1.20;;;8.80;98.20;;;;;;5011947;28;21105;-79
2021/10/18 07:23:12;;;;;;;1.60;1.30;;;8.90;98.20;;;;;;5014676;28;20491;-79
2021/10/18 07:25:43;;;;;;;1.60;1.30;;;9.00;98.20;;;;;;5000402;28;20475;-77
2021/10/18 07:28:13;;;;;;;1.70;1.60;;;9.00;98.20;;;;;;5011462;28;20496;-76
2021/10/18 07:30:44;;;;;;;2.80;2.60;;;9.10;98.20;;;;;;5009179;28;20472;-77
2021/10/18 07:33:10;;;;;;;1.60;1.20;;;9.20;98.20;;;;;;5011871;28;20520;-77
2021/10/18 07:35:40;;;;;;;1.60;1.30;;;9.30;98.20;;;;;;5003245;28;20468;-77
2021/10/18 07:38:09;;;;;;;1.60;1.20;;;9.30;98.20;;;;;;5009163;28;20491;-77
2021/10/18 07:40:36;;;;;;;1.60;1.20;;;9.40;98.20;;;;;;5003789;28;20598;-77
2021/10/18 07:43:03;;;;;;;1.60;1.20;;;9.50;98.20;;;;;;5012436;28;20946;-76
2021/10/18 07:45:30;;;;;;;1.60;1.23;;;9.70;98.20;;;;;;5007717;28;20488;-77
2021/10/18 07:47:59;;;;;;;1.60;1.20;;;9.80;98.20;;;;;;5009636;28;20971;-78
2021/10/18 07:50:25;;;;;;;1.60;1.20;;;9.90;98.20;;;;;;5008021;28;20463;-77
2021/10/18 07:52:52;;;;;;;1.60;1.30;;;9.90;98.20;;;;;;5009202;28;20490;-77
2021/10/18 07:55:20;;;;;;;1.60;1.10;;;10.00;98.20;;;;;;5009356;28;20984;-77
2021/10/18 07:57:49;;;;;;;1.60;1.10;;;10.00;98.20;;;;;;5015156;28;20495;-78
2021/10/18 08:00:28;;;;;;;1.60;1.23;;;10.10;98.20;;;;;;5010394;28;20498;-77
2021/10/18 08:02:55;;;;;;;1.60;1.20;;;10.10;98.20;;;;;;4990520;28;20498;-77
2021/10/18 08:05:24;;;;;;;1.60;1.10;;;10.20;98.20;;;;;;5009714;28;20735;-76
2021/10/18 08:07:52;;;;;;;1.57;1.20;;;10.30;98.20;;;;;;5010875;28;20747;-77
2021/10/18 08:10:25;;;;;;;1.60;1.20;;;10.40;98.20;;;;;;5011858;28;20472;-77
2021/10/18 08:12:53;;;;;;;1.60;1.10;;;10.40;98.20;;;;;;5016563;28;20574;-77
2021/10/18 08:15:23;;;;;;;1.60;1.20;;;10.50;98.20;;;;;;5009497;28;20602;-76
2021/10/18 08:17:53;;;;;;;1.57;1.10;;;10.50;98.20;;;;;;5011417;28;20494;-77
2021/10/18 08:20:26;;;;;;;1.70;1.43;;;10.60;98.20;;;;;;5006401;28;20499;-78
2021/10/18 08:22:59;;;;;;;1.60;1.20;;;10.70;98.20;;;;;;5015173;28;21003;-77
2021/10/18 08:25:29;;;;;;;1.60;1.13;;;10.80;98.20;;;;;;5015066;28;20467;-79
2021/10/18 08:27:58;;;;;;;1.60;1.20;;;10.90;98.20;;;;;;5020973;28;20501;-76
2021/10/18 08:30:28;;;;;;;1.60;1.10;;;11.00;98.20;;;;;;5016884;28;20468;-77
2021/10/18 08:33:16;;;;;;;2.80;2.60;;;11.10;98.20;;;;;;5022555;28;20498;-76
2021/10/18 08:35:46;;;;;;;1.60;1.10;;;11.20;98.20;;;;;;5013827;28;20495;-77
2021/10/18 08:41:20;;;;;;;1.60;1.10;;;11.40;98.20;;;;;;5069486;27;1383288;-77
2021/10/18 08:46:35;;;;;;;1.60;1.13;;;11.70;98.20;;;;;;5062133;28;21104;-79
2021/10/18 08:49:02;;;;;;;1.60;1.10;;;11.80;98.20;;;;;;5066116;28;20485;-79
2021/10/18 08:51:30;;;;;;;1.60;1.30;;;11.90;98.20;;;;;;5051339;28;20988;-78
2021/10/18 08:54:00;;;;;;;1.87;1.73;;;12.00;98.20;;;;;;5055389;28;20480;-78
2021/10/18 08:56:38;;;;;;;1.60;1.10;;;12.00;98.20;;;;;;5043771;28;20673;-78
2021/10/18 08:59:06;;;;;;;1.60;1.13;;;12.10;98.20;;;;;;5055717;28;20481;-78
2021/10/18 09:01:41;;;;;;;1.53;1.00;;;12.00;98.20;;;;;;5051586;28;20509;-78
2021/10/18 09:04:13;;;;;;;1.70;1.37;;;12.00;98.20;;;;;;5057161;28;21242;-78
2021/10/18 09:06:45;;;;;;;1.87;1.30;;;12.10;98.20;;;;;;5049929;28;20488;-80
2021/10/18 09:09:19;;;;;;;1.57;1.10;;;12.10;98.20;;;;;;5059951;28;20566;-78
2021/10/18 09:11:59;;;;;;;1.60;1.10;;;12.20;98.20;;;;;;5046742;28;20560;-77
2021/10/18 09:14:30;;;;;;;1.70;1.40;;;12.30;98.20;;;;;;5055601;28;20465;-78
2021/10/18 09:19:52;;;;;;;1.53;1.00;;;12.40;98.20;;;;;;5053123;28;20473;-78
2021/10/18 09:22:30;;;;;;;1.57;1.10;;;12.40;98.20;;;;;;5041873;28;20491;-78
2021/10/18 09:24:57;;;;;;;1.70;1.20;;;12.40;98.20;;;;;;5077765;28;20773;-79
2021/10/18 09:27:27;;;;;;;1.53;1.00;;;12.50;98.20;;;;;;5047385;28;20569;-78
2021/10/18 09:29:57;;;;;;;3.20;2.43;;;12.60;98.20;;;;;;5058913;28;20906;-78
2021/10/18 09:32:29;;;;;;;1.57;1.00;;;12.70;98.20;;;;;;5053332;28;20495;-78
2021/10/18 09:35:08;;;;;;;1.50;1.00;;;12.80;98.20;;;;;;5060314;28;20968;-79
2021/10/18 09:37:39;;;;;;;1.60;1.00;;;12.90;98.20;;;;;;5052230;28;20480;-79
2021/10/18 09:40:30;;;;;;;2.03;1.73;;;13.00;98.20;;;;;;5067061;28;20970;-78
2021/10/18 09:43:04;;;;;;;1.60;1.10;;;13.10;98.20;;;;;;5051398;28;21023;-78
2021/10/18 09:45:32;;;;;;;1.60;1.20;;;13.30;98.20;;;;;;5058636;28;20984;-79
2021/10/18 10:51:11;;;;;;;1.50;1.00;;;14.70;93.50;;;;;;5018177;28;20831;-76
2021/10/18 10:53:47;;;;;;;1.57;1.00;;;14.70;94.10;;;;;;5028650;28;20463;-77
2021/10/18 10:56:23;;;;;;;1.57;1.00;;;14.70;94.30;;;;;;5008105;28;20525;-76
2021/10/18 10:58:51;;;;;;;1.50;1.00;;;14.70;94.80;;;;;;5024252;28;20722;-76
2021/10/18 11:01:45;;;;;;;1.53;1.00;;;14.70;94.60;;;;;;5011422;28;20875;-76
2021/10/18 11:04:55;;;;;;;1.70;1.47;;;14.80;94.70;;;;;;5020887;28;20471;-77
2021/10/18 11:07:54;;;;;;;1.53;1.00;;;14.80;95.20;;;;;;5017619;28;20886;-76
2021/10/18 11:10:24;;;;;;;1.50;1.00;;;14.90;95.70;;;;;;5014485;28;20462;-77
2021/10/18 11:12:52;;;;;;;1.53;1.10;;;15.10;94.90;;;;;;5026679;28;20900;-76
2021/10/18 11:15:21;;;;;;;1.60;1.00;;;15.20;95.00;;;;;;5018435;28;20467;-77
2021/10/18 11:17:49;;;;;;;1.53;1.00;;;15.30;93.70;;;;;;5021153;28;21107;-77
2021/10/18 11:20:19;;;;;;;1.50;0.90;;;15.40;94.20;;;;;;5009951;28;20492;-78
2021/10/18 11:22:54;;;;;;;1.57;1.00;;;15.50;93.50;;;;;;5026981;28;20510;-77
2021/10/18 11:25:25;;;;;;;1.50;1.00;;;15.50;93.20;;;;;;5016062;28;20471;-77
2021/10/18 11:27:56;;;;;;;1.50;0.90;;;15.60;92.50;;;;;;5010160;28;21253;-77
2021/10/18 11:30:25;;;;;;;1.60;1.23;;;15.60;92.20;;;;;;5012142;28;20469;-77
2021/10/18 11:32:56;;;;;;;1.53;1.00;;;15.60;92.50;;;;;;5012164;28;20480;-77
2021/10/18 11:35:24;;;;;;;1.57;1.00;;;15.60;93.60;;;;;;5015185;28;20473;-77
2021/10/18 11:37:58;;;;;;;1.50;1.00;;;15.70;92.80;;;;;;5024170;28;20573;-77
2021/10/18 11:40:29;;;;;;;1.60;1.27;;;15.70;93.10;;;;;;5022325;28;20553;-77
2021/10/18 11:42:57;;;;;;;1.53;1.00;;;15.60;93.40;;;;;;5027242;28;20512;-77
2021/10/18 11:45:26;;;;;;;1.57;1.03;;;15.60;93.50;;;;;;5013592;28;20464;-78
2021/10/18 11:48:03;;;;;;;1.57;1.07;;;15.70;93.50;;;;;;5021399;28;20486;-77
2021/10/18 11:50:36;;;;;;;1.53;1.00;;;15.80;93.90;;;;;;5017116;28;20467;-77
2021/10/18 11:53:09;;;;;;;1.50;1.00;;;15.80;93.40;;;;;;5011980;28;20481;-77
2021/10/18 11:55:40;;;;;;;1.53;1.00;;;15.80;93.00;;;;;;5017442;28;20467;-77
2021/10/18 11:58:07;;;;;;;1.50;0.90;;;15.80;93.10;;;;;;5025741;28;20514;-77
2021/10/18 12:00:42;;;;;;;1.50;0.90;;;15.90;92.30;;;;;;5025081;28;20487;-77
2021/10/18 12:03:09;;;;;;;1.50;1.00;;;15.90;92.90;;;;;;5025104;28;20512;-78
2021/10/18 12:05:42;;;;;;;1.57;1.00;;;15.90;92.50;;;;;;5013402;28;20476;-77
2021/10/18 12:08:10;;;;;;;1.50;1.00;;;15.90;92.30;;;;;;5026461;28;20843;-77
2021/10/18 12:10:40;;;;;;;1.50;0.90;;;15.90;92.10;;;;;;5016919;28;20829;-77
2021/10/18 12:13:27;;;;;;;1.50;0.97;;;15.80;92.80;;;;;;5012376;28;20490;-77
2021/10/18 12:16:06;;;;;;;1.50;1.00;;;15.90;93.10;;;;;;5007362;28;20946;-77
2021/10/18 12:18:35;;;;;;;1.53;1.10;;;16.00;92.40;;;;;;5023096;28;20487;-77
2021/10/18 12:21:05;;;;;;;1.57;1.10;;;16.00;91.70;;;;;;5009269;28;20486;-77
2021/10/18 12:23:33;;;;;;;1.60;1.00;;;16.00;91.20;;;;;;5031150;28;20464;-78
2021/10/18 12:26:06;;;;;;;1.60;1.10;;;16.00;92.10;;;;;;5012173;28;20963;-78
2021/10/18 12:28:57;;;;;;;1.50;1.00;;;16.00;92.60;;;;;;5023651;28;20483;-77
2021/10/18 12:31:49;;;;;;;1.50;0.97;;;16.10;91.70;;;;;;5018486;28;20768;-78
2021/10/18 12:34:25;;;;;;;4.70;4.30;;;16.10;92.30;;;;;;5020024;28;20460;-78
2021/10/18 12:37:02;;;;;;;1.80;1.57;;;16.20;91.60;;;;;;5018701;28;20494;-77
2021/10/18 12:39:37;;;;;;;2.00;1.63;;;16.20;91.80;;;;;;5025402;28;20840;-77
2021/10/18 12:42:06;;;;;;;1.57;1.00;;;16.20;91.80;;;;;;5018604;28;20994;-78
2021/10/18 12:44:35;;;;;;;1.50;0.90;;;16.30;92.00;;;;;;5023318;28;20463;-77
2021/10/18 12:47:12;;;;;;;1.50;1.00;;;16.30;90.90;;;;;;5017775;28;20526;-78
2021/10/18 12:49:43;;;;;;;1.60;1.30;;;16.10;91.50;;;;;;5021533;28;20459;-77
2021/10/18 12:52:11;;;;;;;1.53;1.00;;;16.00;91.30;;;;;;5013998;28;20542;-77
2021/10/18 12:54:40;;;;;;;1.50;1.00;;;15.90;92.30;;;;;;5020177;28;20459;-77
2021/10/18 12:57:10;;;;;;;1.53;1.00;;;15.90;92.10;;;;;;5010337;28;20489;-77
2021/10/18 12:59:58;;;;;;;1.53;1.00;;;15.90;92.70;;;;;;5016883;28;20481;-78
2021/10/18 13:02:26;;;;;;;1.53;1.00;;;15.90;93.00;;;;;;5009202;28;20487;-78
2021/10/18 13:05:20;;;;;;;1.53;1.00;;;15.90;93.30;;;;;;5019240;28;20517;-78
2021/10/18 13:07:58;;;;;;;1.57;1.10;;;15.90;93.10;;;;;;5006165;28;20573;-77
2021/10/18 13:10:29;;;;;;;1.50;1.00;;;15.90;92.70;;;;;;5010853;28;20464;-77
2021/10/18 13:12:57;;;;;;;1.50;1.00;;;15.90;93.10;;;;;;5017817;28;20486;-77
2021/10/18 13:15:24;;;;;;;1.57;1.00;;;15.90;93.60;;;;;;5011542;28;20507;-77
2021/10/18 13:17:52;;;;;;;1.50;0.90;;;15.90;93.50;;;;;;5021970;28;21251;-77
2021/10/18 13:20:22;;;;;;;1.50;0.90;;;15.90;93.30;;;;;;5010876;28;20629;-78
2021/10/18 13:22:52;;;;;;;1.50;0.90;;;15.90;93.20;;;;;;5017669;28;20486;-77
2021/10/18 13:25:20;;;;;;;1.60;1.20;;;15.90;93.00;;;;;;5019243;28;20474;-77
2021/10/18 13:27:47;;;;;;;1.50;0.90;;;15.90;94.00;;;;;;5015790;28;20828;-77
2021/10/18 13:30:16;;;;;;;1.50;0.90;;;16.00;93.50;;;;;;5015365;28;20460;-77
2021/10/18 13:32:44;;;;;;;1.50;1.00;;;16.00;93.70;;;;;;5022834;28;20987;-77
2021/10/18 13:35:21;;;;;;;1.60;1.00;;;16.00;93.80;;;;;;5025356;28;20974;-78
2021/10/18 13:37:57;;;;;;;1.50;1.00;;;16.10;93.40;;;;;;5029529;28;20598;-77
2021/10/18 13:40:29;;;;;;;1.60;1.10;;;16.10;93.50;;;;;;5023679;28;20599;-78
2021/10/18 13:42:58;;;;;;;1.60;1.00;;;16.10;92.30;;;;;;5033522;28;20481;-77
2021/10/18 13:45:28;;;;;;;1.50;0.90;;;16.00;92.00;;;;;;5018491;28;20466;-77
2021/10/18 13:47:57;;;;;;;1.50;0.90;;;15.90;92.30;;;;;;5023414;28;20487;-77
2021/10/18 13:50:33;;;;;;;1.70;1.27;;;15.90;92.30;;;;;;5015127;28;20460;-77
2021/10/18 13:53:00;;;;;;;1.50;0.90;;;15.70;92.90;;;;;;5025074;28;20958;-77
2021/10/18 13:55:32;;;;;;;2.77;1.43;;;15.70;93.10;;;;;;5020031;28;20489;-77
2021/10/18 13:58:02;;;;;;;1.50;1.00;;;15.60;93.30;;;;;;5016018;28;20585;-78
2021/10/18 14:00:32;;;;;;;1.50;1.00;;;15.60;93.60;;;;;;5023880;28;20581;-76
2021/10/18 14:03:04;;;;;;;3.00;2.80;;;15.60;93.70;;;;;;5028065;28;20566;-77
2021/10/18 14:05:31;;;;;;;2.47;2.07;;;15.60;93.70;;;;;;5022266;28;20550;-78
2021/10/18 14:07:59;;;;;;;1.50;0.90;;;15.60;93.90;;;;;;5024124;28;20585;-78
2021/10/18 14:10:26;;;;;;;1.60;1.00;;;15.50;94.20;;;;;;5015034;28;20500;-77
2021/10/18 14:12:53;;;;;;;1.50;1.00;;;15.60;94.50;;;;;;5013746;28;21036;-77
2021/10/18 14:15:20;;;;;;;1.50;0.97;;;15.60;94.70;;;;;;5019623;28;21277;-76
2021/10/18 14:17:48;;;;;;;1.50;1.00;;;15.60;94.60;;;;;;5031732;28;20549;-76